createdAt,value
2022-08-08T00:02:03.057Z,101132.16
2022-08-08T00:04:30.142Z,101139.03
2022-08-08T00:07:38.043Z,101139.41
2022-08-08T00:10:30.601Z,101131.94
2022-08-08T00:14:17.117Z,101125.31
2022-08-08T00:16:47.039Z,101131.56
2022-08-08T00:19:23.483Z,101136.47
2022-08-08T00:22:02.612Z,101139.19
2022-08-08T00:24:49.896Z,101131.91
2022-08-08T00:27:21.193Z,101135.03
2022-08-08T00:30:04.474Z,101134.06
2022-08-08T00:32:53.819Z,101131.88
2022-08-08T00:35:40.561Z,101131.41
2022-08-08T00:38:51.701Z,101130.06
2022-08-08T00:41:55.251Z,101121.19
2022-08-08T00:45:21.655Z,101131.25
2022-08-08T00:48:59.366Z,101134.50
2022-08-08T00:51:57.185Z,101125.28
2022-08-08T00:54:51.490Z,101127.81
2022-08-08T00:58:16.529Z,101123.38
2022-08-08T01:01:02.070Z,101116.00
2022-08-08T01:04:02.644Z,101117.22
2022-08-08T01:07:01.501Z,101116.03
2022-08-08T01:10:31.850Z,101123.13
2022-08-08T01:13:43.343Z,101115.44
2022-08-08T01:16:46.391Z,101119.78
2022-08-08T01:20:13.117Z,101111.47
2022-08-08T01:23:06.780Z,101114.19
2022-08-08T01:29:35.247Z,101108.88
2022-08-08T01:32:35.943Z,101105.47
2022-08-08T01:35:40.406Z,101107.06
2022-08-08T01:39:01.262Z,101115.47
2022-08-08T01:42:17.058Z,101111.19
2022-08-08T01:45:14.123Z,101103.34
2022-08-08T01:48:30.679Z,101104.59
2022-08-08T01:52:13.065Z,101109.06
2022-08-08T01:55:26.482Z,101105.84
2022-08-08T01:58:38.678Z,101101.78
2022-08-08T02:02:03.138Z,101100.25
2022-08-08T02:05:03.447Z,101090.19
2022-08-08T02:08:12.112Z,101090.19
2022-08-08T02:11:53.218Z,101093.56
2022-08-08T02:14:28.775Z,101084.50
2022-08-08T02:17:36.633Z,101085.34
2022-08-08T02:21:03.134Z,101078.19
2022-08-08T02:23:35.285Z,101079.78
2022-08-08T02:26:12.775Z,101079.09
2022-08-08T02:29:08.411Z,101085.44
2022-08-08T02:32:05.491Z,101080.16
2022-08-08T02:35:07.459Z,101080.81
2022-08-08T02:38:25.403Z,101078.06
2022-08-08T02:41:17.953Z,101094.00
2022-08-08T02:44:38.658Z,101100.78
2022-08-08T02:47:46.961Z,101104.41
2022-08-08T02:50:39.948Z,101110.25
2022-08-08T02:54:13.920Z,101113.22
2022-08-08T02:57:29.271Z,101101.94
2022-08-08T03:00:47.228Z,101108.81
2022-08-08T03:05:02.701Z,101111.22
2022-08-08T03:07:41.605Z,101113.63
2022-08-08T03:10:36.282Z,101107.00
2022-08-08T03:15:57.087Z,101109.22
2022-08-08T03:17:25.564Z,101105.81
2022-08-08T03:20:08.079Z,101105.16
2022-08-08T03:23:00.623Z,101099.84
2022-08-08T03:25:35.982Z,101104.81
2022-08-08T03:28:18.810Z,101111.81
2022-08-08T03:30:49.358Z,101105.66
2022-08-08T03:33:55.987Z,101100.53
2022-08-08T03:36:31.151Z,101097.25
2022-08-08T03:39:14.310Z,101102.56
2022-08-08T03:42:27.291Z,101098.09
2022-08-08T03:44:38.686Z,101101.19
2022-08-08T03:47:19.741Z,101108.38
2022-08-08T03:49:59.629Z,101102.06
2022-08-08T03:52:32.499Z,101102.22
2022-08-08T03:55:10.890Z,101106.56
2022-08-08T03:58:32.274Z,101106.03
2022-08-08T04:01:01.651Z,101104.31
2022-08-08T04:03:59.182Z,101110.50
2022-08-08T04:06:29.792Z,101112.34
2022-08-08T04:09:10.513Z,101113.25
2022-08-08T04:11:48.509Z,101115.09
2022-08-08T04:14:34.138Z,101118.31
2022-08-08T04:17:07.028Z,101122.28
2022-08-08T04:19:43.068Z,101120.56
2022-08-08T04:22:10.172Z,101121.44
2022-08-08T04:24:40.201Z,101125.19
2022-08-08T04:27:19.615Z,101125.38
2022-08-08T04:30:17.018Z,101131.00
2022-08-08T04:32:46.791Z,101130.84
2022-08-08T04:35:15.330Z,101133.91
2022-08-08T04:37:43.800Z,101140.72
2022-08-08T04:40:17.869Z,101139.72
2022-08-08T04:42:56.789Z,101153.03
2022-08-08T04:45:27.856Z,101156.47
2022-08-08T04:48:00.093Z,101153.75
2022-08-08T04:50:38.657Z,101152.91
2022-08-08T04:54:27.391Z,101155.47
2022-08-08T04:56:03.734Z,101167.25
2022-08-08T04:58:34.796Z,101171.00
2022-08-08T05:01:08.901Z,101174.59
2022-08-08T05:04:10.272Z,101179.03
2022-08-08T05:06:29.555Z,101179.53
2022-08-08T05:09:02.661Z,101180.91
2022-08-08T05:11:38.614Z,101177.34
2022-08-08T05:14:12.626Z,101183.81
2022-08-08T05:16:54.214Z,101189.28
2022-08-08T05:20:11.041Z,101192.16
2022-08-08T05:22:18.031Z,101196.09
2022-08-08T05:24:49.506Z,101203.44
2022-08-08T05:27:20.031Z,101203.03
2022-08-08T05:29:50.308Z,101202.34
2022-08-08T05:32:24.754Z,101211.72
2022-08-08T05:35:01.660Z,101206.97
2022-08-08T05:37:53.158Z,101214.81
2022-08-08T05:40:55.773Z,101212.28
2022-08-08T05:43:40.109Z,101210.72
2022-08-08T05:46:19.536Z,101212.09
2022-08-08T05:48:52.391Z,101206.88
2022-08-08T05:51:25.849Z,101208.41
2022-08-08T05:54:27.363Z,101214.03
2022-08-08T05:56:47.356Z,101219.66
2022-08-08T06:00:00.907Z,101221.53
2022-08-08T06:02:47.842Z,101229.56
2022-08-08T06:05:33.336Z,101225.47
2022-08-08T06:08:10.495Z,101236.75
2022-08-08T06:10:59.134Z,101230.94
2022-08-08T06:13:35.536Z,101228.53
2022-08-08T06:16:14.937Z,101237.41
2022-08-08T06:19:16.386Z,101237.56
2022-08-08T06:21:57.048Z,101230.22
2022-08-08T06:24:51.179Z,101234.00
2022-08-08T06:27:47.853Z,101231.25
2022-08-08T06:30:20.424Z,101232.59
2022-08-08T06:33:01.151Z,101238.06
2022-08-08T06:36:06.635Z,101232.25
2022-08-08T06:38:27.604Z,101244.75
2022-08-08T06:41:07.460Z,101243.53
2022-08-08T06:43:37.511Z,101242.38
2022-08-08T06:46:18.933Z,101254.63
2022-08-08T06:48:52.308Z,101247.47
2022-08-08T06:51:22.277Z,101254.81
2022-08-08T06:53:51.049Z,101259.25
2022-08-08T06:56:25.186Z,101259.94
2022-08-08T06:58:54.475Z,101258.06
2022-08-08T07:02:21.401Z,101259.94
2022-08-08T07:04:38.693Z,101256.22
2022-08-08T07:07:13.769Z,101263.03
2022-08-08T07:10:09.144Z,101268.16
2022-08-08T07:12:41.392Z,101261.16
2022-08-08T07:15:32.614Z,101263.38
2022-08-08T07:18:35.546Z,101254.44
2022-08-08T07:21:04.965Z,101253.59
2022-08-08T07:24:19.421Z,101260.63
2022-08-08T07:26:59.250Z,101250.69
2022-08-08T07:30:01.709Z,101245.06
2022-08-08T07:32:24.317Z,101248.09
2022-08-08T07:35:00.722Z,101252.22
2022-08-08T07:37:56.338Z,101245.16
2022-08-08T07:40:29.464Z,101241.38
2022-08-08T07:43:09.465Z,101240.66
2022-08-08T07:46:05.365Z,101254.00
2022-08-08T07:48:31.378Z,101250.75
2022-08-08T07:51:01.299Z,101252.28
2022-08-08T07:54:00.757Z,101257.03
2022-08-08T07:56:52.206Z,101255.66
2022-08-08T07:59:21.907Z,101257.66
2022-08-08T08:02:35.147Z,101250.44
2022-08-08T08:04:53.432Z,101251.31
2022-08-08T08:07:31.682Z,101245.66
2022-08-08T08:10:05.355Z,101253.63
2022-08-08T08:12:43.356Z,101254.50
2022-08-08T08:15:19.146Z,101256.16
2022-08-08T08:17:59.041Z,101259.88
2022-08-08T08:20:30.313Z,101266.53
2022-08-08T08:23:00.552Z,101266.66
2022-08-08T08:25:43.787Z,101259.00
2022-08-08T08:28:17.099Z,101257.97
2022-08-08T08:30:54.705Z,101260.69
2022-08-08T08:33:26.303Z,101255.50
2022-08-08T08:36:18.630Z,101256.03
2022-08-08T08:38:49.588Z,101256.06
2022-08-08T08:41:24.095Z,101255.59
2022-08-08T08:44:13.483Z,101266.19
2022-08-08T08:46:47.445Z,101262.72
2022-08-08T08:49:19.027Z,101256.91
2022-08-08T08:51:50.884Z,101251.38
2022-08-08T08:54:25.185Z,101251.31
2022-08-08T08:56:55.519Z,101250.34
2022-08-08T08:59:58.511Z,101251.88
2022-08-08T09:02:24.409Z,101255.00
2022-08-08T09:05:06.105Z,101255.31
2022-08-08T09:07:39.241Z,101246.78
2022-08-08T09:10:23.486Z,101250.56
2022-08-08T09:12:57.703Z,101257.19
2022-08-08T09:15:41.435Z,101250.50
2022-08-08T09:18:13.155Z,101252.88
2022-08-08T09:21:57.376Z,101254.56
2022-08-08T09:23:33.528Z,101251.50
2022-08-08T09:26:39.584Z,101257.47
2022-08-08T09:29:22.439Z,101255.38
2022-08-08T09:32:14.289Z,101252.56
2022-08-08T09:34:51.711Z,101254.19
2022-08-08T09:37:59.310Z,101249.47
2022-08-08T09:40:41.686Z,101250.03
2022-08-08T09:43:41.116Z,101250.28
2022-08-08T09:46:25.465Z,101251.81
2022-08-08T09:49:04.398Z,101249.84
2022-08-08T09:52:06.938Z,101249.75
2022-08-08T09:54:45.980Z,101245.22
2022-08-08T09:57:34.920Z,101241.31
2022-08-08T10:02:58.064Z,101238.16
2022-08-08T10:05:31.158Z,101233.50
2022-08-08T10:08:00.312Z,101225.88
2022-08-08T10:10:41.725Z,101221.91
2022-08-08T10:13:32.112Z,101221.78
2022-08-08T10:16:04.222Z,101218.88
2022-08-08T10:18:35.700Z,101216.97
2022-08-08T10:21:25.030Z,101213.06
2022-08-08T10:24:12.006Z,101210.69
2022-08-08T10:27:01.869Z,101209.63
2022-08-08T10:29:58.566Z,101214.09
2022-08-08T10:32:48.764Z,101209.13
2022-08-08T10:36:07.972Z,101207.94
2022-08-08T10:38:15.295Z,101205.50
2022-08-08T10:40:45.919Z,101206.28
2022-08-08T10:43:14.352Z,101198.94
2022-08-08T10:45:56.410Z,101200.63
2022-08-08T10:48:57.610Z,101208.06
2022-08-08T10:51:26.593Z,101204.34
2022-08-08T10:54:02.126Z,101192.13
2022-08-08T10:56:35.609Z,101198.97
2022-08-08T10:59:10.341Z,101195.38
2022-08-08T11:01:54.342Z,101190.28
2022-08-08T11:04:38.692Z,101195.38
2022-08-08T11:07:07.305Z,101190.09
2022-08-08T11:09:34.899Z,101190.78
2022-08-08T11:12:12.652Z,101201.44
2022-08-08T11:15:00.630Z,101190.91
2022-08-08T11:18:00.535Z,101200.03
2022-08-08T11:20:30.092Z,101192.88
2022-08-08T11:23:00.408Z,101186.75
2022-08-08T11:25:53.418Z,101183.38
2022-08-08T11:28:29.643Z,101185.94
2022-08-08T11:31:03.883Z,101181.53
2022-08-08T11:33:52.471Z,101179.66
2022-08-08T11:36:27.923Z,101183.06
2022-08-08T11:38:57.509Z,101179.91
2022-08-08T11:41:28.131Z,101177.81
2022-08-08T11:44:00.906Z,101173.56
2022-08-08T11:46:31.484Z,101173.81
2022-08-08T11:49:07.343Z,101165.75
2022-08-08T11:51:39.824Z,101164.47
2022-08-08T11:54:31.923Z,101165.94
2022-08-08T11:57:27.573Z,101159.34
2022-08-08T12:00:07.544Z,101160.00
2022-08-08T12:03:16.882Z,101155.53
2022-08-08T12:05:48.993Z,101148.94
2022-08-08T12:08:18.409Z,101141.25
2022-08-08T12:10:50.453Z,101140.66
2022-08-08T12:13:37.935Z,101144.25
2022-08-08T12:16:16.866Z,101135.31
2022-08-08T12:18:55.667Z,101138.50
2022-08-08T12:21:58.497Z,101132.47
2022-08-08T12:24:19.961Z,101137.13
2022-08-08T12:26:52.937Z,101126.06
2022-08-08T12:29:39.952Z,101121.97
2022-08-08T12:32:19.870Z,101122.78
2022-08-08T12:35:04.865Z,101118.44
2022-08-08T12:38:01.165Z,101120.47
2022-08-08T12:40:56.854Z,101109.38
2022-08-08T12:43:46.533Z,101107.44
2022-08-08T12:46:26.050Z,101110.78
2022-08-08T12:51:58.780Z,101110.13
2022-08-08T12:54:38.092Z,101105.88
2022-08-08T12:57:23.434Z,101104.34
2022-08-08T13:00:03.313Z,101106.84
2022-08-08T13:02:42.136Z,101105.06
2022-08-08T13:05:27.104Z,101101.84
2022-08-08T13:08:18.157Z,101094.63
2022-08-08T13:10:56.839Z,101104.34
2022-08-08T13:13:35.027Z,101096.81
2022-08-08T13:16:25.166Z,101094.41
2022-08-08T13:19:00.611Z,101093.50
2022-08-08T13:21:49.024Z,101090.44
2022-08-08T13:24:39.358Z,101089.66
2022-08-08T13:27:18.029Z,101087.91
2022-08-08T13:29:50.908Z,101084.88
2022-08-08T13:32:20.942Z,101082.28
2022-08-08T13:34:58.976Z,101089.41
2022-08-08T13:38:03.140Z,101087.28
2022-08-08T13:40:27.327Z,101076.31
2022-08-08T13:42:56.512Z,101074.97
2022-08-08T13:45:26.351Z,101078.28
2022-08-08T13:48:03.097Z,101070.13
2022-08-08T13:50:47.975Z,101066.09
2022-08-08T13:53:31.576Z,101065.22
2022-08-08T13:56:11.717Z,101058.13
2022-08-08T13:58:57.776Z,101056.97
2022-08-08T14:01:42.142Z,101055.78
2022-08-08T14:04:23.411Z,101047.47
2022-08-08T14:07:02.164Z,101053.16
2022-08-08T14:10:02.537Z,101045.84
2022-08-08T14:12:30.324Z,101043.91
2022-08-08T14:14:58.026Z,101050.28
2022-08-08T14:17:58.295Z,101038.13
2022-08-08T14:20:56.882Z,101032.56
2022-08-08T14:23:21.198Z,101037.41
2022-08-08T14:26:10.464Z,101030.09
2022-08-08T14:28:39.639Z,101027.09
2022-08-08T14:31:20.524Z,101030.72
2022-08-08T14:34:00.018Z,101028.94
2022-08-08T14:36:40.548Z,101023.91
2022-08-08T14:39:11.787Z,101027.25
2022-08-08T14:41:53.981Z,101017.47
2022-08-08T14:44:33.511Z,101019.78
2022-08-08T14:47:17.170Z,101025.69
2022-08-08T14:50:06.891Z,101025.78
2022-08-08T14:52:59.522Z,101019.19
2022-08-08T14:55:41.343Z,101017.47
2022-08-08T14:58:11.843Z,101015.59
2022-08-08T15:00:45.361Z,101019.31
2022-08-08T15:03:17.063Z,101017.84
2022-08-08T15:05:54.665Z,101011.09
2022-08-08T15:08:34.607Z,101012.16
2022-08-08T15:11:10.158Z,101015.84
2022-08-08T15:14:00.425Z,101018.25
2022-08-08T15:16:29.559Z,101016.72
2022-08-08T15:19:02.661Z,101008.63
2022-08-08T15:21:30.563Z,101004.91
2022-08-08T15:23:58.378Z,101013.09
2022-08-08T15:26:28.587Z,101013.47
2022-08-08T15:28:56.186Z,101018.03
2022-08-08T15:32:02.739Z,101014.66
2022-08-08T15:34:29.160Z,101013.56
2022-08-08T15:37:04.995Z,101005.06
2022-08-08T15:39:38.260Z,101008.03
2022-08-08T15:42:10.024Z,101004.88
2022-08-08T15:44:39.389Z,101001.53
2022-08-08T15:47:16.096Z,101010.19
2022-08-08T15:49:48.371Z,101003.22
2022-08-08T15:52:21.586Z,101003.22
2022-08-08T15:54:52.468Z,100998.72
2022-08-08T15:57:21.288Z,101006.38
2022-08-08T16:00:06.700Z,101005.56
2022-08-08T16:02:50.270Z,101008.31
2022-08-08T16:05:20.719Z,101003.41
2022-08-08T16:07:52.335Z,101010.63
2022-08-08T16:13:02.561Z,101015.06
2022-08-08T16:13:32.240Z,101007.03
2022-08-08T16:16:09.338Z,101012.75
2022-08-08T16:18:56.771Z,101008.94
2022-08-08T16:21:32.016Z,101015.78
2022-08-08T16:24:07.219Z,101015.59
2022-08-08T16:26:39.846Z,101014.75
2022-08-08T16:29:17.736Z,101003.09
2022-08-08T16:31:49.172Z,101003.09
2022-08-08T16:34:21.841Z,101007.16
2022-08-08T16:36:51.891Z,101008.25
2022-08-08T16:40:01.073Z,101010.16
2022-08-08T16:42:17.731Z,101012.91
2022-08-08T16:44:55.256Z,101004.88
2022-08-08T16:47:40.247Z,101005.94
2022-08-08T16:50:15.279Z,101011.22
2022-08-08T16:55:02.516Z,101007.38
2022-08-08T16:55:55.652Z,101005.69
2022-08-08T16:58:32.368Z,101011.03
2022-08-08T17:01:06.256Z,101004.03
2022-08-08T17:03:59.126Z,101009.75
2022-08-08T17:06:41.749Z,101004.47
2022-08-08T17:09:15.029Z,101003.63
2022-08-08T17:11:48.500Z,101008.28
2022-08-08T17:14:27.105Z,100998.56
2022-08-08T17:16:58.186Z,101002.38
2022-08-08T17:19:28.928Z,100991.31
2022-08-08T17:22:01.457Z,100993.50
2022-08-08T17:24:31.402Z,100993.69
2022-08-08T17:27:01.895Z,100996.47
2022-08-08T17:29:32.027Z,100996.91
2022-08-08T17:32:02.786Z,101001.84
2022-08-08T17:34:36.656Z,101011.00
2022-08-08T17:37:19.085Z,101006.38
2022-08-08T17:40:05.737Z,101007.66
2022-08-08T17:42:35.222Z,101009.81
2022-08-08T17:45:02.718Z,101013.63
2022-08-08T17:47:40.438Z,101012.13
2022-08-08T17:50:11.414Z,101016.22
2022-08-08T17:52:43.303Z,101024.72
2022-08-08T17:56:06.931Z,101023.25
2022-08-08T17:57:59.335Z,101029.88
2022-08-08T18:00:31.083Z,101030.31
2022-08-08T18:03:08.740Z,101045.22
2022-08-08T18:05:44.196Z,101042.50
2022-08-08T18:08:38.019Z,101052.09
2022-08-08T18:11:16.226Z,101058.28
2022-08-08T18:13:46.047Z,101055.09
2022-08-08T18:16:20.737Z,101061.56
2022-08-08T18:18:56.323Z,101066.03
2022-08-08T18:21:59.590Z,101072.47
2022-08-08T18:24:22.144Z,101079.72
2022-08-08T18:26:53.912Z,101076.75
2022-08-08T18:29:36.028Z,101079.34
2022-08-08T18:32:07.260Z,101085.13
2022-08-08T18:34:36.774Z,101084.91
2022-08-08T18:37:06.582Z,101091.31
2022-08-08T18:39:41.415Z,101092.81
2022-08-08T18:42:15.674Z,101089.00
2022-08-08T18:44:55.498Z,101094.13
2022-08-08T18:47:28.446Z,101095.63
2022-08-08T18:50:00.268Z,101098.19
2022-08-08T18:52:36.769Z,101100.75
2022-08-08T18:55:10.427Z,101102.66
2022-08-08T18:57:44.617Z,101112.44
2022-08-08T19:00:21.263Z,101119.66
2022-08-08T19:02:57.132Z,101119.25
2022-08-08T19:05:37.714Z,101137.28
2022-08-08T19:08:25.405Z,101137.72
2022-08-08T19:10:59.046Z,101138.13
2022-08-08T19:13:52.600Z,101147.69
2022-08-08T19:16:19.059Z,101150.03
2022-08-08T19:18:53.077Z,101152.59
2022-08-08T19:21:31.061Z,101158.53
2022-08-08T19:24:05.142Z,101161.72
2022-08-08T19:26:37.540Z,101161.06
2022-08-08T19:29:06.486Z,101168.72
2022-08-08T19:31:35.589Z,101171.88
2022-08-08T19:34:35.858Z,101188.19
2022-08-08T19:36:58.897Z,101196.25
2022-08-08T19:39:30.859Z,101200.47
2022-08-08T19:42:06.914Z,101200.28
2022-08-08T19:49:24.156Z,101206.19
2022-08-08T19:51:53.220Z,101210.38
2022-08-08T19:54:20.878Z,101208.69
2022-08-08T19:56:49.240Z,101197.03
2022-08-08T19:59:22.107Z,101201.06
2022-08-08T20:02:01.595Z,101205.06
2022-08-08T20:04:31.010Z,101205.69
2022-08-08T20:07:03.621Z,101206.50
2022-08-08T20:09:45.201Z,101206.03
2022-08-08T20:12:31.938Z,101195.88
2022-08-08T20:15:16.431Z,101195.22
2022-08-08T20:17:47.557Z,101200.50
2022-08-08T20:20:20.702Z,101196.47
2022-08-08T20:22:54.062Z,101196.03
2022-08-08T20:25:24.695Z,101202.16
2022-08-08T20:27:53.922Z,101196.22
2022-08-08T20:30:53.014Z,101204.00
2022-08-08T20:33:20.253Z,101201.03
2022-08-08T20:35:59.036Z,101201.84
2022-08-08T20:38:33.052Z,101206.44
2022-08-08T20:41:15.387Z,101207.91
2022-08-08T20:43:48.188Z,101204.25
2022-08-08T20:46:20.747Z,101205.72
2022-08-08T20:48:51.376Z,101216.28
2022-08-08T20:51:20.620Z,101213.25
2022-08-08T20:54:00.833Z,101208.16
2022-08-08T20:56:35.824Z,101204.13
2022-08-08T20:59:08.650Z,101211.94
2022-08-08T21:02:06.526Z,101202.19
2022-08-08T21:04:27.334Z,101202.78
2022-08-08T21:06:55.812Z,101202.97
2022-08-08T21:09:31.809Z,101204.25
2022-08-08T21:12:11.820Z,101202.09
2022-08-08T21:14:38.923Z,101216.91
2022-08-08T21:17:07.484Z,101208.81
2022-08-08T21:19:45.373Z,101203.72
2022-08-08T21:22:14.359Z,101209.22
2022-08-08T21:24:52.933Z,101211.97
2022-08-08T21:28:05.679Z,101213.22
2022-08-08T21:30:19.254Z,101214.47
2022-08-08T21:32:52.298Z,101202.78
2022-08-08T21:36:13.746Z,101213.78
2022-08-08T21:38:16.783Z,101209.53
2022-08-08T21:40:55.196Z,101217.16
2022-08-08T21:43:33.738Z,101208.25
2022-08-08T21:48:04.175Z,101216.03
2022-08-08T21:48:55.809Z,101210.09
2022-08-08T21:54:18.773Z,101222.31
2022-08-08T21:54:53.525Z,101222.94
2022-08-08T21:57:08.268Z,101224.38
2022-08-08T22:00:01.481Z,101223.72
2022-08-08T22:02:24.891Z,101224.31
2022-08-08T22:04:56.124Z,101225.34
2022-08-08T22:07:34.640Z,101226.78
2022-08-08T22:10:18.149Z,101234.75
2022-08-08T22:13:18.040Z,101230.53
2022-08-08T22:15:59.108Z,101240.84
2022-08-08T22:18:33.588Z,101254.97
2022-08-08T22:21:14.311Z,101257.72
2022-08-08T22:23:51.813Z,101262.53
2022-08-08T22:26:29.039Z,101267.38
2022-08-08T22:29:13.787Z,101271.34
2022-08-08T22:31:58.453Z,101270.69
2022-08-08T22:34:32.325Z,101268.13
2022-08-08T22:37:00.841Z,101274.88
2022-08-08T22:39:39.283Z,101267.00
2022-08-08T22:42:14.231Z,101273.94
2022-08-08T22:44:51.693Z,101273.66
2022-08-08T22:47:18.645Z,101270.06
2022-08-08T22:49:53.790Z,101269.97
2022-08-08T22:52:33.778Z,101274.16
2022-08-08T22:55:06.142Z,101268.00
2022-08-08T22:57:43.655Z,101267.75
2022-08-08T23:00:13.792Z,101265.16
2022-08-08T23:02:44.646Z,101267.28
2022-08-08T23:05:17.197Z,101273.16
2022-08-08T23:07:57.142Z,101271.41
2022-08-08T23:10:26.927Z,101270.78
2022-08-08T23:12:55.086Z,101268.41
2022-08-08T23:16:42.019Z,101273.59
2022-08-08T23:18:12.029Z,101267.16
2022-08-08T23:20:43.247Z,101275.97
2022-08-08T23:23:12.598Z,101281.16
2022-08-08T23:25:48.061Z,101277.25
2022-08-08T23:28:18.799Z,101276.78
2022-08-08T23:30:47.168Z,101280.13
2022-08-08T23:33:20.930Z,101285.78
2022-08-08T23:36:08.338Z,101290.13
2022-08-08T23:38:43.934Z,101297.00
2022-08-08T23:41:22.757Z,101299.75
2022-08-08T23:43:54.191Z,101302.88
2022-08-08T23:49:08.767Z,101299.09
2022-08-08T23:49:18.203Z,101298.22
2022-08-08T23:52:06.424Z,101301.16
2022-08-08T23:54:42.707Z,101302.22
2022-08-08T23:57:39.355Z,101303.25
